Time;durP1;ratioP1;P1;durP2;ratioP2;P2;SDS_P1;SDS_P2;PMS_P1;PMS_P2;Temp;Humidity;BMP_temperature;BMP_pressure;BME280_temperature;BME280_humidity;BME280_pressure;Samples;Min_cycle;Max_cycle;Signal;HPM_P1;HPM_P2
2023/12/26 00:00:19;;;;;;;5.30;4.80;;;;;;;;;;4941762;28;20219;-87
2023/12/26 00:02:49;;;;;;;6.20;4.77;;;;;;;;;;4941388;28;20239;-85
2023/12/26 00:05:18;;;;;;;4.47;4.07;;;;;;;;;;4939243;28;20219;-85
2023/12/26 00:07:43;;;;;;;4.30;3.97;;;;;;;;;;4957439;28;20219;-86
2023/12/26 00:10:10;;;;;;;4.53;4.17;;;;;;;;;;4972257;28;20239;-87
2023/12/26 00:12:36;;;;;;;4.13;3.83;;;;;;;;;;4958315;28;20240;-86
2023/12/26 00:15:06;;;;;;;4.83;3.70;;;;;;;;;;4977528;28;20230;-89
2023/12/26 00:17:35;;;;;;;4.10;3.63;;;;;;;;;;4955213;28;20238;-88
2023/12/26 00:20:01;;;;;;;4.10;3.70;;;;;;;;;;4942324;28;20224;-88
2023/12/26 00:22:26;;;;;;;3.57;3.27;;;;;;;;;;4959338;28;20292;-87
2023/12/26 00:24:52;;;;;;;3.60;3.30;;;;;;;;;;4962301;28;20257;-87
2023/12/26 00:27:18;;;;;;;3.37;3.07;;;;;;;;;;4956113;28;20247;-86
2023/12/26 00:29:44;;;;;;;7.07;3.30;;;;;;;;;;4952551;28;20653;-86
2023/12/26 00:32:12;;;;;;;3.47;3.17;;;;;;;;;;4949060;28;20285;-84
2023/12/26 00:34:39;;;;;;;4.90;3.40;;;;;;;;;;4942360;28;20227;-88
2023/12/26 00:37:05;;;;;;;2.83;2.63;;;;;;;;;;4928670;28;20334;-88
2023/12/26 00:39:30;;;;;;;3.37;3.07;;;;;;;;;;4953293;28;20223;-87
2023/12/26 00:41:56;;;;;;;3.10;2.80;;;;;;;;;;4940119;28;20227;-88
2023/12/26 00:44:22;;;;;;;2.70;2.50;;;;;;;;;;4965080;28;20234;-88
2023/12/26 00:46:47;;;;;;;3.80;3.03;;;;;;;;;;4927848;29;20232;-87
2023/12/26 00:49:14;;;;;;;3.03;2.83;;;;;;;;;;4941201;28;20650;-88
2023/12/26 00:51:39;;;;;;;2.47;2.27;;;;;;;;;;4939460;28;20235;-87
2023/12/26 00:54:05;;;;;;;2.30;2.20;;;;;;;;;;4944653;28;20293;-87
2023/12/26 00:56:31;;;;;;;2.63;2.23;;;;;;;;;;4952655;28;20246;-87
2023/12/26 00:58:59;;;;;;;2.30;2.20;;;;;;;;;;4970441;28;20622;-86
2023/12/26 01:01:27;;;;;;;2.33;2.13;;;;;;;;;;4940096;28;20219;-88
2023/12/26 01:03:55;;;;;;;1.90;1.80;;;;;;;;;;4964439;28;20231;-86
2023/12/26 01:06:23;;;;;;;2.10;2.00;;;;;;;;;;4958181;28;20642;-86
2023/12/26 01:08:51;;;;;;;2.00;1.90;;;;;;;;;;4940056;28;20243;-87
2023/12/26 01:11:20;;;;;;;2.47;1.77;;;;;;;;;;4969849;28;20251;-87
2023/12/26 01:13:48;;;;;;;1.60;1.50;;;;;;;;;;4942590;28;20238;-88
2023/12/26 01:16:16;;;;;;;1.93;1.67;;;;;;;;;;4948515;28;20223;-85
2023/12/26 01:18:42;;;;;;;1.87;1.53;;;;;;;;;;4961070;28;20219;-87
2023/12/26 01:21:08;;;;;;;1.73;1.57;;;;;;;;;;4960227;28;20258;-87
2023/12/26 01:23:34;;;;;;;1.50;1.40;;;;;;;;;;4947640;28;20231;-87
2023/12/26 01:26:01;;;;;;;1.87;1.40;;;;;;;;;;4941468;28;20250;-87
2023/12/26 01:28:26;;;;;;;1.43;1.33;;;;;;;;;;4944302;28;20228;-88
2023/12/26 01:30:52;;;;;;;1.53;1.40;;;;;;;;;;4940014;28;20219;-84
2023/12/26 01:33:18;;;;;;;1.70;1.40;;;;;;;;;;4947708;28;20768;-88
2023/12/26 01:35:45;;;;;;;1.13;1.03;;;;;;;;;;4944089;28;20242;-85
2023/12/26 01:38:14;;;;;;;1.00;0.90;;;;;;;;;;4923900;28;20226;-87
2023/12/26 01:40:42;;;;;;;1.17;1.17;;;;;;;;;;4974266;28;20255;-90
2023/12/26 01:43:08;;;;;;;1.37;1.20;;;;;;;;;;4973440;28;20321;-89
2023/12/26 01:45:34;;;;;;;6.50;1.10;;;;;;;;;;4957864;28;20257;-87
2023/12/26 01:48:00;;;;;;;1.73;0.90;;;;;;;;;;4957071;28;20234;-87
2023/12/26 01:50:29;;;;;;;1.00;1.00;;;;;;;;;;4970932;28;20218;-87
2023/12/26 01:52:55;;;;;;;1.30;1.20;;;;;;;;;;4942372;28;20258;-86
2023/12/26 01:55:25;;;;;;;0.80;0.80;;;;;;;;;;4973339;28;20314;-88
2023/12/26 01:57:55;;;;;;;0.80;0.80;;;;;;;;;;4925495;29;20219;-88
2023/12/26 02:00:23;;;;;;;1.03;0.93;;;;;;;;;;4969121;28;20231;-88
2023/12/26 02:02:51;;;;;;;0.87;0.87;;;;;;;;;;4955844;28;20219;-88
2023/12/26 02:05:17;;;;;;;0.73;0.73;;;;;;;;;;4956718;28;20227;-88
2023/12/26 02:07:42;;;;;;;0.80;0.80;;;;;;;;;;4955990;28;20231;-87
2023/12/26 02:10:10;;;;;;;0.87;0.80;;;;;;;;;;4952408;28;20239;-87
2023/12/26 02:12:36;;;;;;;0.70;0.70;;;;;;;;;;4958453;28;20231;-87
2023/12/26 02:15:03;;;;;;;1.10;0.90;;;;;;;;;;4948227;28;20238;-87
2023/12/26 02:17:30;;;;;;;0.93;0.90;;;;;;;;;;4943641;28;20226;-88
2023/12/26 02:19:57;;;;;;;0.67;0.67;;;;;;;;;;4952572;28;20227;-88
2023/12/26 02:22:23;;;;;;;0.73;0.73;;;;;;;;;;4947391;28;20234;-86
2023/12/26 02:24:51;;;;;;;0.70;0.67;;;;;;;;;;4941980;28;20314;-88
2023/12/26 02:27:23;;;;;;;0.57;0.57;;;;;;;;;;4944971;28;20693;-85
2023/12/26 02:29:50;;;;;;;0.70;0.70;;;;;;;;;;4940493;28;20219;-86
2023/12/26 02:32:19;;;;;;;0.50;0.50;;;;;;;;;;4957444;28;20230;-87
2023/12/26 02:34:50;;;;;;;0.80;0.70;;;;;;;;;;4956143;28;20503;-86
2023/12/26 02:37:16;;;;;;;1.10;0.70;;;;;;;;;;4960953;28;20231;-87
2023/12/26 02:39:44;;;;;;;1.80;0.80;;;;;;;;;;4964701;28;20247;-87
2023/12/26 02:42:11;;;;;;;1.43;0.90;;;;;;;;;;4955999;28;20214;-87
2023/12/26 02:44:38;;;;;;;0.50;0.50;;;;;;;;;;4955106;28;20227;-88
2023/12/26 02:47:05;;;;;;;0.97;0.90;;;;;;;;;;4961978;28;20256;-89
2023/12/26 02:49:32;;;;;;;1.13;1.00;;;;;;;;;;4955967;28;20222;-87
2023/12/26 02:51:58;;;;;;;0.97;0.80;;;;;;;;;;4952230;28;20246;-85
2023/12/26 02:54:24;;;;;;;1.27;1.00;;;;;;;;;;4946368;28;20219;-86
2023/12/26 02:56:50;;;;;;;0.90;0.90;;;;;;;;;;4956347;28;20241;-85
2023/12/26 02:59:16;;;;;;;1.40;1.30;;;;;;;;;;4964686;28;20216;-85
2023/12/26 03:01:45;;;;;;;0.80;0.80;;;;;;;;;;4958337;28;20227;-86
2023/12/26 03:04:11;;;;;;;1.03;0.97;;;;;;;;;;4939458;28;20518;-87
2023/12/26 03:06:37;;;;;;;1.50;0.97;;;;;;;;;;4959029;28;20237;-85
2023/12/26 03:09:03;;;;;;;1.50;1.40;;;;;;;;;;4941960;28;20227;-87
2023/12/26 03:11:29;;;;;;;1.00;1.00;;;;;;;;;;4944176;28;20229;-87
2023/12/26 03:13:55;;;;;;;2.20;1.20;;;;;;;;;;4942563;28;20249;-88
2023/12/26 03:16:21;;;;;;;1.10;1.00;;;;;;;;;;4941483;28;20218;-87
2023/12/26 03:18:49;;;;;;;1.40;1.10;;;;;;;;;;4956754;28;20237;-86
2023/12/26 03:21:20;;;;;;;1.40;1.30;;;;;;;;;;4958574;28;20226;-87
2023/12/26 03:23:47;;;;;;;3.53;1.20;;;;;;;;;;4952331;28;20250;-86
2023/12/26 03:26:16;;;;;;;1.17;1.10;;;;;;;;;;4944965;28;20222;-87
2023/12/26 03:28:42;;;;;;;1.70;1.50;;;;;;;;;;4944877;28;20227;-86
2023/12/26 03:31:08;;;;;;;1.20;1.10;;;;;;;;;;4949792;28;20223;-87
2023/12/26 03:33:36;;;;;;;0.60;0.60;;;;;;;;;;4923378;28;20230;-85
2023/12/26 03:36:03;;;;;;;1.17;1.00;;;;;;;;;;4935329;28;20218;-87
2023/12/26 03:38:30;;;;;;;1.07;1.00;;;;;;;;;;4958407;28;20225;-87
2023/12/26 03:40:58;;;;;;;1.30;1.10;;;;;;;;;;4952916;28;20222;-85
2023/12/26 03:43:26;;;;;;;1.20;1.10;;;;;;;;;;4953883;28;20247;-88
2023/12/26 03:45:52;;;;;;;1.67;1.27;;;;;;;;;;4937624;28;20236;-88
2023/12/26 03:48:18;;;;;;;1.77;1.27;;;;;;;;;;4947717;28;20230;-86
2023/12/26 03:50:44;;;;;;;1.50;1.23;;;;;;;;;;4931086;28;20234;-86
2023/12/26 03:53:09;;;;;;;2.07;1.70;;;;;;;;;;4938428;28;20222;-89
2023/12/26 03:55:35;;;;;;;1.50;1.40;;;;;;;;;;4962531;28;20223;-87
2023/12/26 03:58:01;;;;;;;3.73;2.53;;;;;;;;;;4946028;28;20211;-87
2023/12/26 04:04:15;;;;;;;1.00;0.80;;;;;;;;;;4956530;28;20289;-88
2023/12/26 04:06:42;;;;;;;0.63;0.60;;;;;;;;;;4969180;28;20238;-89
2023/12/26 04:09:09;;;;;;;0.60;0.60;;;;;;;;;;4957828;28;20219;-88
2023/12/26 04:11:35;;;;;;;0.50;0.50;;;;;;;;;;4963203;28;20235;-85
2023/12/26 04:14:03;;;;;;;0.90;0.73;;;;;;;;;;4951876;28;20233;-87
2023/12/26 04:16:31;;;;;;;0.70;0.70;;;;;;;;;;4948981;28;20314;-85
2023/12/26 04:18:56;;;;;;;0.93;0.70;;;;;;;;;;4946300;28;20227;-88
2023/12/26 04:21:22;;;;;;;0.60;0.60;;;;;;;;;;4967758;28;20211;-87
2023/12/26 04:23:50;;;;;;;0.80;0.80;;;;;;;;;;4927004;29;20215;-88
2023/12/26 04:26:16;;;;;;;1.20;0.97;;;;;;;;;;4960610;28;20771;-88
2023/12/26 04:28:42;;;;;;;1.13;0.90;;;;;;;;;;4951305;28;20222;-88
2023/12/26 04:31:07;;;;;;;2.20;1.00;;;;;;;;;;4927397;28;20257;-88
2023/12/26 04:33:37;;;;;;;0.87;0.87;;;;;;;;;;4953469;28;20224;-85
2023/12/26 04:36:05;;;;;;;1.07;0.90;;;;;;;;;;4956882;28;20254;-87
2023/12/26 04:38:34;;;;;;;1.03;1.00;;;;;;;;;;4941245;28;20313;-88
2023/12/26 04:41:04;;;;;;;1.07;1.07;;;;;;;;;;4935276;28;20241;-87
2023/12/26 04:43:30;;;;;;;3.07;1.27;;;;;;;;;;4954826;28;20236;-89
2023/12/26 04:45:56;;;;;;;2.77;1.00;;;;;;;;;;4958355;28;20231;-86
2023/12/26 04:48:21;;;;;;;0.97;0.97;;;;;;;;;;4945287;28;20210;-86
2023/12/26 04:50:47;;;;;;;1.93;1.30;;;;;;;;;;4956893;28;20967;-89
2023/12/26 04:53:18;;;;;;;1.33;1.20;;;;;;;;;;4926916;28;20304;-89
2023/12/26 04:55:44;;;;;;;3.70;1.43;;;;;;;;;;4943621;28;20247;-89
2023/12/26 04:58:13;;;;;;;1.33;1.23;;;;;;;;;;4953740;28;20215;-87
2023/12/26 05:00:38;;;;;;;1.40;1.30;;;;;;;;;;4944906;28;20226;-89
2023/12/26 05:03:06;;;;;;;1.50;1.40;;;;;;;;;;4939019;28;20351;-86
2023/12/26 05:05:32;;;;;;;2.07;1.50;;;;;;;;;;4958864;28;20239;-85
2023/12/26 05:07:58;;;;;;;2.07;1.60;;;;;;;;;;4941806;28;20249;-87
2023/12/26 05:10:26;;;;;;;2.70;1.70;;;;;;;;;;4945833;28;20742;-84
2023/12/26 05:12:52;;;;;;;3.67;2.10;;;;;;;;;;4939060;28;20251;-87
2023/12/26 05:15:21;;;;;;;2.27;1.63;;;;;;;;;;4956892;28;20221;-87
2023/12/26 05:17:46;;;;;;;2.17;1.80;;;;;;;;;;4934450;28;20749;-88
2023/12/26 05:20:16;;;;;;;4.40;1.70;;;;;;;;;;4964172;28;20218;-87
2023/12/26 05:22:41;;;;;;;4.27;1.60;;;;;;;;;;4955068;28;20231;-85
2023/12/26 05:25:10;;;;;;;2.87;1.70;;;;;;;;;;4950280;28;20219;-85
2023/12/26 05:27:38;;;;;;;2.37;1.50;;;;;;;;;;4928288;29;20673;-87
2023/12/26 05:30:11;;;;;;;1.77;1.40;;;;;;;;;;4937444;28;20673;-88
2023/12/26 05:32:39;;;;;;;3.63;1.30;;;;;;;;;;4966858;28;20738;-86
2023/12/26 05:35:07;;;;;;;2.37;1.50;;;;;;;;;;4959783;28;20225;-85
2023/12/26 05:37:33;;;;;;;8.13;1.47;;;;;;;;;;4956179;28;20235;-87
2023/12/26 05:39:59;;;;;;;4.93;1.70;;;;;;;;;;4949542;28;20225;-87
2023/12/26 05:42:26;;;;;;;5.13;1.70;;;;;;;;;;4943472;28;20744;-86
2023/12/26 05:44:55;;;;;;;4.00;1.43;;;;;;;;;;4950972;28;20226;-85
2023/12/26 05:47:23;;;;;;;4.10;1.60;;;;;;;;;;4978441;28;20207;-85
2023/12/26 05:49:49;;;;;;;4.00;1.57;;;;;;;;;;4958543;28;20283;-86
2023/12/26 05:52:15;;;;;;;4.20;1.70;;;;;;;;;;4967803;28;20293;-86
2023/12/26 05:54:41;;;;;;;3.23;1.60;;;;;;;;;;4935244;28;20237;-84
2023/12/26 05:57:06;;;;;;;3.70;1.60;;;;;;;;;;4931288;28;20223;-87
2023/12/26 05:59:34;;;;;;;6.23;1.60;;;;;;;;;;4934045;28;20222;-84
2023/12/26 06:02:00;;;;;;;4.70;1.80;;;;;;;;;;4934725;28;20296;-84
2023/12/26 06:04:26;;;;;;;4.67;1.70;;;;;;;;;;4942934;28;20231;-87
2023/12/26 06:06:52;;;;;;;3.77;1.67;;;;;;;;;;4951892;28;20518;-87
2023/12/26 06:09:17;;;;;;;3.57;1.80;;;;;;;;;;4959564;28;20203;-84
2023/12/26 06:11:46;;;;;;;5.97;1.43;;;;;;;;;;4977691;28;20231;-88
2023/12/26 06:14:14;;;;;;;7.97;1.90;;;;;;;;;;4966687;28;20246;-89
2023/12/26 06:16:39;;;;;;;3.37;1.43;;;;;;;;;;4931022;29;20227;-88
2023/12/26 06:19:05;;;;;;;5.27;1.63;;;;;;;;;;4957665;28;20217;-89
2023/12/26 06:21:37;;;;;;;3.73;1.53;;;;;;;;;;4957695;28;20219;-88
2023/12/26 06:24:03;;;;;;;7.73;1.90;;;;;;;;;;4934161;28;20223;-87
2023/12/26 06:26:29;;;;;;;4.20;1.90;;;;;;;;;;4957994;28;20238;-90
2023/12/26 06:28:54;;;;;;;4.13;1.53;;;;;;;;;;4924859;29;20748;-88
2023/12/26 06:31:20;;;;;;;4.30;1.50;;;;;;;;;;4948922;28;20221;-89
2023/12/26 06:33:48;;;;;;;7.30;2.03;;;;;;;;;;4956496;28;21019;-88
2023/12/26 06:36:14;;;;;;;4.67;1.60;;;;;;;;;;4955423;28;20215;-84
2023/12/26 06:38:42;;;;;;;5.60;1.60;;;;;;;;;;4942708;28;20219;-85
2023/12/26 06:41:09;;;;;;;5.43;1.57;;;;;;;;;;4947881;28;20223;-88
2023/12/26 06:43:37;;;;;;;6.77;1.90;;;;;;;;;;4954291;28;20242;-87
2023/12/26 06:46:03;;;;;;;3.37;1.60;;;;;;;;;;4950161;28;20326;-87
2023/12/26 06:48:35;;;;;;;4.47;1.67;;;;;;;;;;4910761;29;20231;-86
2023/12/26 06:51:05;;;;;;;6.00;1.67;;;;;;;;;;4958838;28;20237;-90
2023/12/26 06:53:30;;;;;;;5.97;1.77;;;;;;;;;;4939692;28;20242;-88
2023/12/26 06:55:56;;;;;;;5.00;2.13;;;;;;;;;;4955716;28;20634;-88
2023/12/26 06:58:25;;;;;;;7.30;1.93;;;;;;;;;;4945522;28;20211;-86
2023/12/26 07:00:51;;;;;;;6.07;1.80;;;;;;;;;;4928396;28;20264;-86
2023/12/26 07:03:17;;;;;;;7.60;1.90;;;;;;;;;;4947661;28;20608;-88
2023/12/26 07:05:45;;;;;;;6.60;1.70;;;;;;;;;;4983480;28;20237;-88
2023/12/26 07:08:11;;;;;;;8.60;1.73;;;;;;;;;;4967058;28;20219;-88
2023/12/26 07:10:41;;;;;;;4.23;1.57;;;;;;;;;;4978566;28;20250;-89
2023/12/26 07:13:07;;;;;;;5.13;1.93;;;;;;;;;;4943636;28;20246;-86
2023/12/26 07:15:35;;;;;;;8.77;2.07;;;;;;;;;;4985089;28;20231;-86
2023/12/26 07:18:00;;;;;;;6.60;1.90;;;;;;;;;;4959792;28;20219;-88
2023/12/26 07:20:28;;;;;;;5.77;2.00;;;;;;;;;;4945640;28;20230;-87
2023/12/26 07:22:54;;;;;;;8.20;2.10;;;;;;;;;;4968276;28;20234;-89
2023/12/26 07:25:22;;;;;;;6.30;1.97;;;;;;;;;;4926434;28;20223;-87
2023/12/26 07:27:47;;;;;;;7.53;2.00;;;;;;;;;;4976385;28;20680;-87
2023/12/26 07:30:13;;;;;;;4.43;1.80;;;;;;;;;;4979234;28;20233;-87
2023/12/26 07:32:39;;;;;;;8.00;2.40;;;;;;;;;;4943506;28;20249;-87
2023/12/26 07:35:04;;;;;;;6.17;2.17;;;;;;;;;;4948856;28;20243;-87
2023/12/26 07:37:32;;;;;;;7.23;2.60;;;;;;;;;;4937159;28;20643;-85
2023/12/26 07:40:00;;;;;;;5.77;2.60;;;;;;;;;;4950343;28;20237;-87
2023/12/26 07:42:28;;;;;;;6.77;2.50;;;;;;;;;;4946286;28;20693;-85
2023/12/26 07:44:53;;;;;;;7.17;2.50;;;;;;;;;;4975541;28;20228;-85
2023/12/26 07:47:19;;;;;;;6.77;2.20;;;;;;;;;;4946222;28;20218;-86
2023/12/26 07:49:45;;;;;;;8.50;2.33;;;;;;;;;;4945271;28;20227;-87
2023/12/26 07:52:14;;;;;;;9.40;2.53;;;;;;;;;;4956824;28;20234;-87
2023/12/26 07:54:39;;;;;;;7.10;2.40;;;;;;;;;;4977026;28;20226;-88
2023/12/26 07:57:05;;;;;;;7.93;2.00;;;;;;;;;;4951120;28;20233;-88
2023/12/26 07:59:34;;;;;;;6.13;2.30;;;;;;;;;;4935557;28;20241;-85
2023/12/26 08:02:00;;;;;;;7.37;2.27;;;;;;;;;;4943593;28;20385;-86
2023/12/26 08:04:25;;;;;;;9.47;2.50;;;;;;;;;;4975784;28;20227;-88
2023/12/26 08:06:51;;;;;;;9.83;2.20;;;;;;;;;;4976885;28;20214;-86
2023/12/26 08:09:19;;;;;;;7.27;2.10;;;;;;;;;;4927970;28;20657;-88
2023/12/26 08:11:48;;;;;;;7.27;2.57;;;;;;;;;;4955401;28;20249;-87
2023/12/26 08:14:17;;;;;;;7.73;2.80;;;;;;;;;;4958527;28;20223;-87
2023/12/26 08:16:46;;;;;;;7.87;2.20;;;;;;;;;;4959371;28;20230;-84
2023/12/26 08:19:12;;;;;;;9.20;2.20;;;;;;;;;;4971473;28;20286;-86
2023/12/26 08:21:37;;;;;;;6.40;1.97;;;;;;;;;;4962570;28;20259;-88
2023/12/26 08:24:07;;;;;;;9.47;2.33;;;;;;;;;;4961089;28;20219;-86
2023/12/26 08:26:35;;;;;;;7.30;1.83;;;;;;;;;;4950176;28;20243;-86
2023/12/26 08:29:01;;;;;;;6.67;2.03;;;;;;;;;;4944106;28;20233;-85
2023/12/26 08:31:29;;;;;;;4.03;1.60;;;;;;;;;;4971873;28;20475;-87
2023/12/26 08:33:55;;;;;;;7.43;2.10;;;;;;;;;;4931377;29;20607;-87
2023/12/26 08:36:21;;;;;;;5.20;2.03;;;;;;;;;;4956174;28;20310;-86
2023/12/26 08:38:48;;;;;;;6.83;2.30;;;;;;;;;;4942788;28;20265;-84
2023/12/26 08:41:16;;;;;;;4.90;1.70;;;;;;;;;;4955952;28;20700;-86
2023/12/26 08:43:42;;;;;;;6.13;2.23;;;;;;;;;;4945040;28;20234;-87
2023/12/26 08:46:11;;;;;;;6.97;2.20;;;;;;;;;;4946513;28;20232;-87
2023/12/26 08:48:36;;;;;;;9.00;2.53;;;;;;;;;;4975350;28;20766;-87
2023/12/26 08:51:02;;;;;;;6.57;2.27;;;;;;;;;;4957312;28;20226;-88
2023/12/26 08:53:28;;;;;;;6.33;2.37;;;;;;;;;;4958185;28;20234;-88
2023/12/26 08:55:53;;;;;;;6.97;2.30;;;;;;;;;;4967195;28;20235;-87
2023/12/26 08:58:19;;;;;;;5.57;2.10;;;;;;;;;;4963096;28;20223;-85
2023/12/26 09:00:45;;;;;;;7.50;1.97;;;;;;;;;;4933020;28;20235;-86
2023/12/26 09:03:13;;;;;;;8.23;2.10;;;;;;;;;;4939206;28;20229;-86
2023/12/26 09:05:40;;;;;;;6.90;1.80;;;;;;;;;;4930918;29;20235;-86
2023/12/26 09:08:06;;;;;;;5.10;1.73;;;;;;;;;;4952366;28;20359;-87
2023/12/26 09:10:33;;;;;;;11.07;2.80;;;;;;;;;;4944886;28;20231;-85
2023/12/26 09:12:59;;;;;;;4.87;2.13;;;;;;;;;;4948883;28;20215;-85
2023/12/26 09:15:28;;;;;;;10.33;2.70;;;;;;;;;;4942676;28;20223;-87
2023/12/26 09:17:55;;;;;;;7.47;1.93;;;;;;;;;;4941857;28;20234;-85
2023/12/26 09:20:21;;;;;;;6.33;2.00;;;;;;;;;;4959572;28;20233;-87
2023/12/26 09:22:47;;;;;;;5.43;2.10;;;;;;;;;;4956721;28;20238;-86
2023/12/26 09:25:14;;;;;;;4.87;2.00;;;;;;;;;;4970901;28;20222;-87
2023/12/26 09:27:45;;;;;;;6.07;1.97;;;;;;;;;;4958666;28;20643;-87
2023/12/26 09:30:19;;;;;;;8.17;2.10;;;;;;;;;;4951471;28;20227;-86
2023/12/26 09:32:48;;;;;;;8.17;2.40;;;;;;;;;;4962873;28;20235;-86
2023/12/26 09:35:14;;;;;;;4.30;1.87;;;;;;;;;;4967229;28;20222;-87
2023/12/26 09:37:44;;;;;;;3.73;1.73;;;;;;;;;;4957657;28;20246;-87
2023/12/26 09:40:11;;;;;;;4.37;1.73;;;;;;;;;;4944465;28;20354;-86
2023/12/26 09:42:37;;;;;;;5.43;1.97;;;;;;;;;;4932647;29;20235;-86
2023/12/26 09:45:03;;;;;;;6.37;1.90;;;;;;;;;;4968965;28;20234;-87
2023/12/26 09:47:29;;;;;;;6.97;1.83;;;;;;;;;;4971154;28;20250;-87
2023/12/26 09:49:57;;;;;;;4.70;1.90;;;;;;;;;;4941749;28;20222;-86
2023/12/26 09:52:23;;;;;;;6.43;1.50;;;;;;;;;;4958179;28;20250;-86
2023/12/26 09:54:52;;;;;;;5.70;2.27;;;;;;;;;;4963858;28;20700;-87
2023/12/26 09:57:22;;;;;;;9.97;2.93;;;;;;;;;;4956772;28;20299;-86
2023/12/26 09:59:53;;;;;;;4.27;2.67;;;;;;;;;;4960528;28;20260;-89
2023/12/26 10:02:19;;;;;;;6.80;2.80;;;;;;;;;;4944948;28;20218;-86
2023/12/26 10:04:46;;;;;;;7.10;2.43;;;;;;;;;;4957492;28;20238;-87
2023/12/26 10:07:14;;;;;;;4.40;2.47;;;;;;;;;;4949281;28;20298;-87
2023/12/26 10:09:41;;;;;;;5.63;2.83;;;;;;;;;;4933019;29;20258;-87
2023/12/26 10:12:07;;;;;;;6.20;2.73;;;;;;;;;;4940353;28;20254;-88
2023/12/26 10:14:32;;;;;;;6.63;2.50;;;;;;;;;;4944506;28;20234;-86
2023/12/26 10:17:00;;;;;;;11.90;4.17;;;;;;;;;;4953073;28;20216;-88
2023/12/26 10:19:26;;;;;;;5.93;2.47;;;;;;;;;;4964688;28;20233;-86
2023/12/26 10:21:54;;;;;;;4.53;2.30;;;;;;;;;;4923947;29;20309;-86
2023/12/26 10:24:20;;;;;;;3.80;2.03;;;;;;;;;;4969421;28;20229;-84
2023/12/26 10:26:46;;;;;;;7.47;2.73;;;;;;;;;;4938038;28;20669;-88
2023/12/26 10:29:14;;;;;;;6.33;2.23;;;;;;;;;;4951294;28;20255;-90
2023/12/26 10:31:43;;;;;;;2.83;1.70;;;;;;;;;;4952943;28;20226;-88
2023/12/26 10:34:20;;;;;;;5.80;2.03;;;;;;;;;;4944655;28;20766;-86
2023/12/26 10:36:50;;;;;;;6.03;2.00;;;;;;;;;;4938863;28;20226;-88
2023/12/26 10:39:18;;;;;;;6.77;2.30;;;;;;;;;;4936643;28;20225;-89
2023/12/26 10:41:47;;;;;;;3.77;2.20;;;;;;;;;;4954833;28;20250;-85
2023/12/26 10:44:15;;;;;;;5.47;1.80;;;;;;;;;;4933457;28;20314;-86
2023/12/26 10:46:40;;;;;;;6.83;2.27;;;;;;;;;;4954540;28;20226;-86
2023/12/26 10:49:06;;;;;;;4.40;1.90;;;;;;;;;;4962006;28;20286;-84
2023/12/26 10:51:32;;;;;;;7.40;2.23;;;;;;;;;;4934604;28;20250;-86
2023/12/26 10:54:07;;;;;;;7.97;2.33;;;;;;;;;;4938692;28;20700;-85
2023/12/26 10:56:33;;;;;;;6.27;2.30;;;;;;;;;;4941482;28;20234;-88
2023/12/26 10:58:58;;;;;;;6.23;2.03;;;;;;;;;;4956354;28;20241;-87
2023/12/26 13:54:15;;;;;;;5.93;1.63;;;;;;;;;;4957719;28;20237;-88
2023/12/26 13:57:18;;;;;;;8.77;2.00;;;;;;;;;;4973531;28;20262;-84
2023/12/26 14:00:21;;;;;;;3.73;1.50;;;;;;;;;;4954145;28;20234;-86
2023/12/26 14:03:28;;;;;;;4.37;1.90;;;;;;;;;;4969168;28;20235;-85
2023/12/26 14:06:32;;;;;;;6.53;2.20;;;;;;;;;;4969093;28;20244;-82
2023/12/26 14:09:36;;;;;;;8.53;2.40;;;;;;;;;;4968539;28;20242;-87
2023/12/26 14:12:39;;;;;;;5.00;2.10;;;;;;;;;;4965988;28;20242;-85
2023/12/26 14:15:42;;;;;;;7.10;1.97;;;;;;;;;;4972841;28;20243;-85
2023/12/26 14:18:45;;;;;;;7.50;2.30;;;;;;;;;;4972141;28;20238;-85
2023/12/26 14:21:48;;;;;;;8.37;2.60;;;;;;;;;;4970619;28;20315;-87
2023/12/26 14:24:51;;;;;;;8.30;2.70;;;;;;;;;;4976533;28;20317;-86
2023/12/26 14:27:54;;;;;;;6.13;1.93;;;;;;;;;;4982626;28;20315;-84
2023/12/26 14:30:59;;;;;;;9.23;2.23;;;;;;;;;;4991070;28;20206;-85
2023/12/26 14:34:02;;;;;;;4.70;1.90;;;;;;;;;;4977370;28;20250;-81
2023/12/26 14:37:05;;;;;;;6.00;2.27;;;;;;;;;;4988592;28;20234;-85
2023/12/26 14:40:09;;;;;;;7.03;2.23;;;;;;;;;;4972075;28;20210;-85
2023/12/26 14:43:12;;;;;;;6.70;2.63;;;;;;;;;;4989173;28;20218;-85
2023/12/26 14:46:16;;;;;;;10.33;2.80;;;;;;;;;;4949382;29;20227;-87
2023/12/26 14:49:19;;;;;;;4.17;2.20;;;;;;;;;;4952690;28;20285;-86
2023/12/26 14:52:22;;;;;;;5.17;2.23;;;;;;;;;;4948934;28;20286;-84
2023/12/26 14:55:25;;;;;;;5.43;2.77;;;;;;;;;;4949234;28;20234;-84
2023/12/26 14:58:28;;;;;;;4.67;1.97;;;;;;;;;;4970801;28;20273;-88
2023/12/26 15:01:32;;;;;;;6.03;2.40;;;;;;;;;;4954078;28;20218;-86
2023/12/26 15:04:00;;;;;;;6.63;2.57;;;;;;;;;;4968381;28;20242;-85
2023/12/26 15:06:30;;;;;;;6.93;2.37;;;;;;;;;;4961652;28;20658;-86
2023/12/26 15:08:56;;;;;;;8.97;2.30;;;;;;;;;;4954723;28;20226;-86
2023/12/26 15:11:24;;;;;;;8.90;3.60;;;;;;;;;;4972094;28;20269;-84
2023/12/26 15:13:50;;;;;;;4.90;2.27;;;;;;;;;;4941732;28;20257;-86
2023/12/26 15:16:17;;;;;;;6.17;3.10;;;;;;;;;;4935283;28;20228;-89
2023/12/26 15:18:44;;;;;;;4.23;2.40;;;;;;;;;;4929955;28;20284;-84
2023/12/26 15:21:10;;;;;;;6.27;2.00;;;;;;;;;;4918176;28;20234;-88
2023/12/26 15:23:36;;;;;;;7.47;2.60;;;;;;;;;;4955941;28;20238;-88
2023/12/26 15:26:01;;;;;;;6.47;2.80;;;;;;;;;;4957346;28;20559;-86
2023/12/26 15:28:27;;;;;;;5.97;2.30;;;;;;;;;;4937821;28;20274;-84
2023/12/26 15:30:53;;;;;;;10.40;3.20;;;;;;;;;;4958481;28;20218;-85
2023/12/26 15:33:24;;;;;;;6.63;2.37;;;;;;;;;;4945973;28;20227;-84
2023/12/26 15:35:53;;;;;;;7.67;3.03;;;;;;;;;;4961450;28;20247;-86
2023/12/26 15:38:21;;;;;;;5.87;2.50;;;;;;;;;;4957423;28;20286;-87
2023/12/26 15:40:46;;;;;;;7.90;2.33;;;;;;;;;;4975284;28;20755;-88
2023/12/26 15:43:12;;;;;;;10.60;3.23;;;;;;;;;;4959744;28;20234;-86
2023/12/26 15:45:42;;;;;;;5.73;2.57;;;;;;;;;;4957430;28;20237;-85
2023/12/26 15:48:13;;;;;;;8.70;3.70;;;;;;;;;;4962758;28;20269;-88
2023/12/26 15:50:39;;;;;;;4.80;2.10;;;;;;;;;;4940237;28;20215;-88
2023/12/26 15:53:04;;;;;;;5.93;1.87;;;;;;;;;;4957533;28;20244;-85
2023/12/26 15:55:30;;;;;;;7.30;3.00;;;;;;;;;;4957158;28;20230;-86
2023/12/26 15:57:58;;;;;;;11.50;5.03;;;;;;;;;;4942814;28;20647;-87
2023/12/26 16:00:26;;;;;;;7.17;4.33;;;;;;;;;;4985796;28;20234;-83
2023/12/26 16:02:52;;;;;;;10.50;4.40;;;;;;;;;;4987785;28;20262;-86
2023/12/26 16:05:20;;;;;;;4.63;2.90;;;;;;;;;;4944937;28;20235;-87
2023/12/26 16:07:46;;;;;;;6.03;2.30;;;;;;;;;;4952121;28;20682;-87
2023/12/26 16:10:11;;;;;;;5.40;2.60;;;;;;;;;;4929064;28;20226;-84
2023/12/26 16:12:38;;;;;;;9.33;2.70;;;;;;;;;;4932674;28;20219;-84
2023/12/26 16:15:07;;;;;;;6.20;2.03;;;;;;;;;;4959963;28;20215;-87
2023/12/26 16:17:35;;;;;;;4.90;1.87;;;;;;;;;;4926321;29;20230;-86
2023/12/26 16:20:01;;;;;;;6.70;2.03;;;;;;;;;;4927133;29;20231;-86
2023/12/26 16:22:26;;;;;;;5.53;2.43;;;;;;;;;;4947875;28;20259;-88
2023/12/26 16:24:52;;;;;;;5.27;1.80;;;;;;;;;;4956417;28;20222;-88
2023/12/26 16:27:20;;;;;;;7.70;1.70;;;;;;;;;;4958958;28;20278;-88
2023/12/26 16:29:46;;;;;;;8.10;1.87;;;;;;;;;;4946563;28;20211;-88
2023/12/26 16:32:14;;;;;;;3.90;1.17;;;;;;;;;;4946697;28;20223;-84
2023/12/26 16:34:40;;;;;;;8.07;1.70;;;;;;;;;;4931924;29;20229;-90
2023/12/26 16:37:08;;;;;;;4.83;1.47;;;;;;;;;;4957041;28;20818;-86
2023/12/26 16:39:34;;;;;;;5.30;1.80;;;;;;;;;;4947356;28;20236;-86
2023/12/26 16:42:07;;;;;;;2.73;1.37;;;;;;;;;;4967759;28;20227;-87
2023/12/26 16:44:42;;;;;;;3.80;2.13;;;;;;;;;;4934800;28;20235;-87
2023/12/26 16:47:13;;;;;;;5.93;1.33;;;;;;;;;;4936715;28;20241;-88
2023/12/26 16:49:45;;;;;;;3.47;2.10;;;;;;;;;;4947598;28;20226;-88
2023/12/26 16:52:10;;;;;;;4.20;1.97;;;;;;;;;;4970631;28;20220;-88
2023/12/26 16:54:37;;;;;;;2.13;1.10;;;;;;;;;;4952719;28;20476;-89
2023/12/26 16:57:02;;;;;;;8.77;1.80;;;;;;;;;;4956213;28;20219;-89
2023/12/26 16:59:30;;;;;;;5.07;1.93;;;;;;;;;;4924471;28;20238;-87
2023/12/26 17:01:56;;;;;;;6.50;2.30;;;;;;;;;;4923108;29;20237;-87
2023/12/26 17:04:24;;;;;;;10.30;1.90;;;;;;;;;;4935710;28;20223;-89
2023/12/26 17:06:50;;;;;;;4.23;1.60;;;;;;;;;;4939542;28;20231;-88
2023/12/26 17:09:15;;;;;;;3.97;1.60;;;;;;;;;;4937565;28;20226;-89
2023/12/26 17:11:45;;;;;;;4.20;2.27;;;;;;;;;;4927007;29;20291;-87
2023/12/26 17:14:10;;;;;;;4.90;1.70;;;;;;;;;;4937085;28;20225;-87
2023/12/26 17:16:36;;;;;;;4.07;1.90;;;;;;;;;;4942462;28;21634;-88
2023/12/26 17:19:02;;;;;;;7.37;3.03;;;;;;;;;;4932228;28;20219;-87
2023/12/26 17:21:32;;;;;;;3.43;2.67;;;;;;;;;;4955670;28;20246;-89
2023/12/26 17:23:58;;;;;;;4.93;2.70;;;;;;;;;;4956012;28;20230;-88
2023/12/26 17:26:24;;;;;;;5.10;2.60;;;;;;;;;;4954928;28;20230;-86
2023/12/26 17:28:54;;;;;;;3.50;1.50;;;;;;;;;;4953426;28;20589;-88
2023/12/26 17:31:20;;;;;;;7.50;2.67;;;;;;;;;;4939988;28;20317;-87
2023/12/26 17:33:45;;;;;;;6.70;2.47;;;;;;;;;;4937870;28;20254;-87
2023/12/26 17:36:11;;;;;;;5.43;3.03;;;;;;;;;;4950849;28;20242;-88
2023/12/26 17:38:46;;;;;;;5.23;2.27;;;;;;;;;;4948775;28;20223;-87
2023/12/26 17:41:15;;;;;;;9.23;2.90;;;;;;;;;;4956602;28;20229;-87
2023/12/26 17:43:41;;;;;;;7.83;2.20;;;;;;;;;;4942540;28;20226;-87
2023/12/26 17:46:12;;;;;;;6.73;2.30;;;;;;;;;;4941888;28;20333;-87
2023/12/26 17:48:38;;;;;;;3.33;1.80;;;;;;;;;;4954129;28;20230;-86
2023/12/26 17:51:04;;;;;;;8.67;2.63;;;;;;;;;;4938914;28;20302;-87